createdAt,value
2019-01-22T00:01:20.291Z,25.90
2019-01-22T00:03:49.782Z,27.20
2019-01-22T00:06:19.464Z,26.03
2019-01-22T00:08:48.947Z,25.90
2019-01-22T00:11:18.446Z,25.05
2019-01-22T00:13:47.928Z,25.05
2019-01-22T00:16:17.412Z,25.72
2019-01-22T00:18:46.888Z,27.05
2019-01-22T00:21:16.369Z,26.68
2019-01-22T00:23:45.861Z,25.65
2019-01-22T00:26:15.368Z,27.37
2019-01-22T00:28:44.860Z,25.15
2019-01-22T00:31:14.346Z,23.75
2019-01-22T00:33:43.831Z,25.12
2019-01-22T00:36:13.309Z,25.75
2019-01-22T00:38:42.852Z,26.45
2019-01-22T00:41:12.346Z,26.97
2019-01-22T00:43:42.790Z,24.82
2019-01-22T00:46:12.357Z,25.23
2019-01-22T00:48:41.840Z,25.30
2019-01-22T00:51:11.321Z,25.87
2019-01-22T00:53:40.807Z,26.05
2019-01-22T00:56:10.361Z,26.30
2019-01-22T00:58:40.109Z,26.62
2019-01-22T01:01:09.605Z,26.48
2019-01-22T01:03:39.082Z,26.27
2019-01-22T01:06:08.640Z,26.80
2019-01-22T01:08:38.171Z,28.83
2019-01-22T01:11:07.613Z,26.25
2019-01-22T01:13:37.095Z,26.15
2019-01-22T01:16:06.575Z,24.98
2019-01-22T01:18:36.054Z,25.63
2019-01-22T01:21:05.623Z,25.33
2019-01-22T01:23:35.101Z,24.92
2019-01-22T01:26:04.753Z,25.72
2019-01-22T01:28:34.236Z,26.50
2019-01-22T01:31:03.722Z,25.35
2019-01-22T01:33:33.193Z,26.20
2019-01-22T01:36:02.675Z,25.37
2019-01-22T01:38:32.544Z,26.35
2019-01-22T01:41:02.047Z,25.37
2019-01-22T01:43:31.527Z,24.32
2019-01-22T01:46:01.014Z,24.20
2019-01-22T01:48:30.499Z,24.57
2019-01-22T01:50:59.991Z,24.12
2019-01-22T01:53:29.461Z,24.50
2019-01-22T01:55:58.942Z,25.90
2019-01-22T01:58:28.418Z,26.23
2019-01-22T02:00:57.903Z,24.92
2019-01-22T02:03:27.379Z,26.10
2019-01-22T02:05:57.265Z,25.25
2019-01-22T02:08:26.757Z,26.27
2019-01-22T02:10:56.264Z,24.92
2019-01-22T02:13:36.363Z,25.60
2019-01-22T02:16:53.985Z,25.23
2019-01-22T02:20:05.829Z,23.55
2019-01-22T02:23:30.720Z,25.20
2019-01-22T02:26:29.191Z,25.10
2019-01-22T02:29:41.607Z,24.27
2019-01-22T02:32:51.134Z,24.60
2019-01-22T02:35:46.240Z,24.25
2019-01-22T02:38:37.010Z,24.12
2019-01-22T02:41:26.370Z,24.32
2019-01-22T02:44:33.277Z,23.00
2019-01-22T02:47:27.816Z,24.37
2019-01-22T02:50:32.395Z,24.35
2019-01-22T02:53:39.050Z,24.10
2019-01-22T02:56:32.156Z,23.60
2019-01-22T02:59:32.927Z,23.38
2019-01-22T03:02:27.117Z,24.90
2019-01-22T03:05:21.776Z,23.87
2019-01-22T03:08:07.673Z,22.77
2019-01-22T03:10:51.694Z,23.42
2019-01-22T03:13:48.184Z,23.35
2019-01-22T03:16:48.239Z,23.60
2019-01-22T03:19:27.096Z,25.05
2019-01-22T03:22:15.342Z,23.73
2019-01-22T03:25:21.606Z,24.92
2019-01-22T03:28:50.796Z,23.60
2019-01-22T03:31:30.034Z,24.93
2019-01-22T03:34:12.556Z,22.93
2019-01-22T03:37:03.443Z,23.93
2019-01-22T03:40:16.250Z,22.85
2019-01-22T03:43:17.719Z,22.90
2019-01-22T03:45:57.031Z,23.47
2019-01-22T03:49:08.219Z,24.35
2019-01-22T03:52:10.730Z,24.05
2019-01-22T03:55:36.721Z,24.07
2019-01-22T03:58:11.797Z,23.97
2019-01-22T04:01:00.355Z,25.67
2019-01-22T04:03:29.856Z,24.90
2019-01-22T04:06:02.326Z,24.37
2019-01-22T04:08:31.817Z,25.77
2019-01-22T04:11:16.107Z,24.27
2019-01-22T04:13:45.603Z,24.47
2019-01-22T04:16:15.077Z,24.40
2019-01-22T04:18:44.564Z,24.18
2019-01-22T04:21:16.245Z,24.87
2019-01-22T04:24:01.650Z,24.55
2019-01-22T04:27:04.142Z,23.30
2019-01-22T04:30:16.955Z,23.85
2019-01-22T04:33:17.700Z,24.80
2019-01-22T04:36:43.216Z,23.60
2019-01-22T04:39:44.951Z,23.85
2019-01-22T04:42:32.267Z,31.05
2019-01-22T04:45:28.916Z,28.83
2019-01-22T04:48:28.326Z,31.83
2019-01-22T04:51:25.680Z,30.55
2019-01-22T04:54:11.605Z,31.17
2019-01-22T04:57:08.735Z,28.02
2019-01-22T05:00:15.704Z,28.57
2019-01-22T05:03:08.350Z,26.87
2019-01-22T05:06:01.634Z,26.42
2019-01-22T05:09:06.267Z,26.05
2019-01-22T05:12:01.769Z,25.23
2019-01-22T05:15:08.828Z,25.52
2019-01-22T05:17:54.333Z,26.05
2019-01-22T05:20:30.944Z,24.32
2019-01-22T05:23:38.420Z,25.50
2019-01-22T05:26:53.254Z,25.57
2019-01-22T05:29:44.053Z,24.52
2019-01-22T05:32:38.392Z,30.15
2019-01-22T05:35:50.820Z,49.88
2019-01-22T05:38:49.345Z,49.27
2019-01-22T05:41:56.537Z,45.23
2019-01-22T05:45:10.169Z,42.70
2019-01-22T05:47:58.813Z,39.87
2019-01-22T05:51:05.681Z,40.10
2019-01-22T05:53:55.413Z,38.05
2019-01-22T05:56:33.805Z,38.90
2019-01-22T05:59:36.576Z,39.03
2019-01-22T06:02:37.941Z,38.28
2019-01-22T06:05:48.926Z,39.78
2019-01-22T06:08:49.357Z,37.90
2019-01-22T06:11:57.568Z,36.38
2019-01-22T06:14:41.499Z,35.55
2019-01-22T06:17:31.843Z,33.83
2019-01-22T06:21:01.041Z,32.07
2019-01-22T06:24:15.082Z,31.10
2019-01-22T06:27:21.533Z,29.40
2019-01-22T06:30:35.602Z,28.03
2019-01-22T06:33:49.423Z,28.42
2019-01-22T06:36:47.011Z,28.75
2019-01-22T06:40:04.184Z,29.30
2019-01-22T06:42:46.623Z,28.32
2019-01-22T06:45:45.833Z,27.80
2019-01-22T06:48:47.274Z,28.98
2019-01-22T06:51:31.330Z,29.23
2019-01-22T06:54:16.662Z,29.37
2019-01-22T06:56:57.664Z,29.15
2019-01-22T07:00:09.777Z,29.80
2019-01-22T07:02:55.370Z,32.33
2019-01-22T07:05:35.932Z,32.58
2019-01-22T07:08:31.534Z,31.00
2019-01-22T07:11:13.547Z,29.47
2019-01-22T07:14:11.406Z,29.45
2019-01-22T07:17:03.535Z,28.80
2019-01-22T07:20:11.433Z,29.50
2019-01-22T07:23:13.413Z,30.53
2019-01-22T07:26:01.044Z,28.05
2019-01-22T07:29:30.142Z,28.45
2019-01-22T07:32:27.179Z,30.33
2019-01-22T07:35:21.932Z,32.08
2019-01-22T07:38:00.429Z,33.53
2019-01-22T07:41:12.826Z,32.90
2019-01-22T07:43:58.813Z,35.38
2019-01-22T07:47:21.547Z,31.48
2019-01-22T07:49:59.784Z,30.97
2019-01-22T07:52:47.913Z,30.70
2019-01-22T07:55:52.447Z,32.53
2019-01-22T07:58:47.509Z,33.50
2019-01-22T08:02:01.508Z,33.55
2019-01-22T08:05:01.181Z,31.73
2019-01-22T08:07:51.085Z,32.33
2019-01-22T08:10:33.908Z,32.30
2019-01-22T08:13:47.614Z,32.73
2019-01-22T08:16:47.944Z,31.63
2019-01-22T08:19:44.222Z,32.80
2019-01-22T08:22:36.543Z,32.87
2019-01-22T08:25:32.687Z,32.47
2019-01-22T08:28:56.179Z,32.27
2019-01-22T08:32:13.126Z,31.67
2019-01-22T08:35:09.599Z,32.37
2019-01-22T08:38:10.981Z,31.80
2019-01-22T08:41:40.487Z,31.90
2019-01-22T08:44:36.090Z,29.53
2019-01-22T08:47:25.059Z,29.92
2019-01-22T08:50:22.473Z,31.00
2019-01-22T08:53:23.564Z,31.00
2019-01-22T08:56:25.330Z,30.87
2019-01-22T08:59:33.906Z,29.10
2019-01-22T09:02:40.516Z,28.12
2019-01-22T09:05:45.807Z,30.50
2019-01-22T09:08:33.698Z,30.50
2019-01-22T09:11:31.373Z,28.23
2019-01-22T09:14:36.253Z,28.10
2019-01-22T09:17:24.036Z,30.75
2019-01-22T09:20:02.343Z,50.98
2019-01-22T09:23:09.308Z,47.35
2019-01-22T09:25:48.578Z,44.90
2019-01-22T09:28:54.131Z,47.45
2019-01-22T09:32:02.635Z,44.40
2019-01-22T09:35:15.142Z,37.35
2019-01-22T09:37:52.222Z,33.70
2019-01-22T09:40:24.382Z,34.77
2019-01-22T09:42:52.973Z,38.88
2019-01-22T09:45:22.512Z,39.23
2019-01-22T09:47:51.981Z,35.23
2019-01-22T09:50:21.503Z,29.27
2019-01-22T09:52:50.996Z,32.33
2019-01-22T09:55:22.573Z,27.97
2019-01-22T09:57:51.756Z,27.70
2019-01-22T10:00:21.635Z,26.83
2019-01-22T10:02:51.126Z,27.52
2019-01-22T10:05:20.770Z,27.67
2019-01-22T10:07:50.320Z,29.07
2019-01-22T10:10:20.831Z,25.32
2019-01-22T10:12:50.333Z,26.37
2019-01-22T10:15:21.136Z,25.13
2019-01-22T10:17:50.707Z,25.00
2019-01-22T10:20:21.808Z,24.70
2019-01-22T10:22:51.394Z,28.32
2019-01-22T10:25:20.993Z,27.32
2019-01-22T10:27:50.489Z,25.75
2019-01-22T10:30:21.932Z,24.10
2019-01-22T10:32:51.585Z,24.30
2019-01-22T10:35:21.173Z,22.40
2019-01-22T10:37:50.720Z,23.75
2019-01-22T10:40:21.941Z,24.30
2019-01-22T10:42:51.755Z,23.33
2019-01-22T10:45:21.326Z,23.75
2019-01-22T10:47:50.816Z,23.30
2019-01-22T10:50:20.984Z,22.00
2019-01-22T10:52:50.519Z,20.37
2019-01-22T10:55:20.088Z,21.27
2019-01-22T10:57:49.646Z,20.83
2019-01-22T11:00:22.119Z,23.17
2019-01-22T11:02:51.612Z,22.05
2019-01-22T11:05:24.360Z,21.02
2019-01-22T11:07:53.852Z,21.37
2019-01-22T11:10:23.461Z,21.25
2019-01-22T11:12:53.007Z,21.42
2019-01-22T11:15:27.878Z,20.50
2019-01-22T11:17:53.779Z,21.42
2019-01-22T11:20:24.874Z,21.60
2019-01-22T11:22:54.383Z,21.67
2019-01-22T11:25:25.997Z,22.73
2019-01-22T11:27:55.586Z,21.80
2019-01-22T11:30:25.496Z,21.00
2019-01-22T11:32:54.999Z,22.03
2019-01-22T11:35:24.891Z,21.33
2019-01-22T11:37:54.456Z,22.83
2019-01-22T11:40:29.603Z,22.75
2019-01-22T11:42:59.166Z,21.87
2019-01-22T11:45:28.740Z,21.70
2019-01-22T11:47:58.234Z,22.67
2019-01-22T11:50:27.719Z,21.93
2019-01-22T11:52:57.259Z,21.85
2019-01-22T11:55:26.740Z,21.60
2019-01-22T11:57:56.236Z,21.90
2019-01-22T12:00:32.586Z,21.87
2019-01-22T12:03:02.076Z,22.80
2019-01-22T12:05:31.667Z,22.10
2019-01-22T12:08:02.258Z,21.60
2019-01-22T12:10:31.860Z,21.07
2019-01-22T12:13:01.397Z,21.45
2019-01-22T12:15:31.017Z,21.03
2019-01-22T12:18:00.622Z,23.18
2019-01-22T12:20:31.217Z,23.83
2019-01-22T12:23:00.813Z,25.75
2019-01-22T12:25:30.386Z,22.97
2019-01-22T12:27:59.967Z,24.33
2019-01-22T12:30:31.580Z,29.72
2019-01-22T12:33:01.261Z,22.65
2019-01-22T12:35:30.843Z,22.00
2019-01-22T12:38:00.451Z,24.57
2019-01-22T12:40:30.041Z,24.20
2019-01-22T12:42:59.643Z,21.83
2019-01-22T12:45:31.506Z,22.60
2019-01-22T12:48:01.086Z,22.80
2019-01-22T12:50:30.850Z,24.37
2019-01-22T12:53:00.331Z,24.80
2019-01-22T12:55:29.918Z,22.23
2019-01-22T12:57:59.441Z,22.48
2019-01-22T13:00:30.379Z,25.25
2019-01-22T13:02:59.951Z,25.12
2019-01-22T13:05:39.588Z,24.20
2019-01-22T13:08:09.149Z,23.67
2019-01-22T13:10:38.737Z,23.60
2019-01-22T13:13:08.306Z,24.07
2019-01-22T13:15:37.799Z,24.12
2019-01-22T13:18:07.448Z,24.40
2019-01-22T13:20:36.951Z,23.65
2019-01-22T13:23:06.566Z,25.56
2019-01-22T13:25:37.109Z,25.47
2019-01-22T13:28:06.699Z,25.53
2019-01-22T13:30:36.356Z,29.30
2019-01-22T13:33:05.914Z,29.15
2019-01-22T13:35:35.482Z,24.55
2019-01-22T13:38:05.453Z,24.30
2019-01-22T13:40:34.995Z,27.40
2019-01-22T13:43:05.020Z,25.72
2019-01-22T13:45:34.738Z,27.07
2019-01-22T13:48:05.483Z,25.67
2019-01-22T13:50:35.005Z,25.68
2019-01-22T13:53:04.956Z,24.80
2019-01-22T13:55:36.252Z,25.90
2019-01-22T13:58:06.173Z,27.27
2019-01-22T14:00:36.707Z,27.23
2019-01-22T14:03:06.659Z,28.57
2019-01-22T14:05:36.259Z,27.30
2019-01-22T14:08:05.888Z,28.10
2019-01-22T14:10:35.489Z,27.83
2019-01-22T14:13:05.299Z,28.07
2019-01-22T14:15:40.273Z,28.30
2019-01-22T14:18:11.543Z,28.00
2019-01-22T14:20:41.058Z,25.90
2019-01-22T14:23:10.559Z,27.05
2019-01-22T14:25:40.087Z,28.77
2019-01-22T14:28:09.572Z,28.77
2019-01-22T14:30:40.632Z,30.07
2019-01-22T14:33:10.108Z,30.08
2019-01-22T14:35:39.687Z,30.33
2019-01-22T14:38:09.255Z,29.50
2019-01-22T14:40:38.746Z,29.67
2019-01-22T14:43:08.249Z,30.15
2019-01-22T14:45:37.741Z,28.37
2019-01-22T14:48:07.221Z,29.17
2019-01-22T14:50:36.724Z,30.70
2019-01-22T14:53:06.216Z,30.00
2019-01-22T14:55:35.721Z,29.90
2019-01-22T14:58:05.489Z,29.05
2019-01-22T15:00:34.981Z,29.35
2019-01-22T15:03:04.480Z,28.55
2019-01-22T15:05:34.133Z,28.50
2019-01-22T15:08:04.609Z,28.25
2019-01-22T15:10:34.146Z,28.17
2019-01-22T15:13:03.788Z,28.80
2019-01-22T15:15:33.270Z,29.72
2019-01-22T15:18:02.765Z,29.90
2019-01-22T15:20:32.267Z,30.82
2019-01-22T15:23:01.766Z,27.87
2019-01-22T15:25:31.350Z,30.20
2019-01-22T15:28:00.816Z,31.60
2019-01-22T15:30:32.715Z,31.00
2019-01-22T15:33:02.280Z,31.27
2019-01-22T15:35:31.847Z,31.70
2019-01-22T15:38:01.351Z,30.97
2019-01-22T15:40:31.456Z,30.90
2019-01-22T15:43:00.948Z,29.60
2019-01-22T15:45:30.661Z,31.62
2019-01-22T15:48:00.132Z,30.62
2019-01-22T15:50:29.708Z,32.58
2019-01-22T15:52:59.282Z,32.20
2019-01-22T15:55:30.973Z,31.03
2019-01-22T15:58:00.465Z,30.03
2019-01-22T16:00:30.023Z,30.48
2019-01-22T16:02:59.501Z,30.70
2019-01-22T16:05:29.084Z,32.78
2019-01-22T16:07:58.577Z,31.50
2019-01-22T16:10:28.063Z,31.73
2019-01-22T16:12:57.566Z,30.45
2019-01-22T16:15:27.108Z,30.40
2019-01-22T16:17:56.592Z,30.27
2019-01-22T16:20:27.097Z,31.40
2019-01-22T16:22:56.660Z,32.27
2019-01-22T16:25:26.506Z,32.53
2019-01-22T16:27:57.411Z,31.52
2019-01-22T16:30:27.858Z,32.10
2019-01-22T16:32:57.531Z,31.33
2019-01-22T16:35:27.748Z,31.07
2019-01-22T16:49:07.537Z,30.20
2019-01-22T16:55:28.067Z,31.57
2019-01-22T16:57:57.635Z,33.27
2019-01-22T17:00:29.016Z,32.27
2019-01-22T17:02:58.610Z,31.50
2019-01-22T17:05:28.281Z,31.87
2019-01-22T17:07:57.768Z,33.63
2019-01-22T17:10:27.362Z,34.10
2019-01-22T17:12:56.917Z,32.17
2019-01-22T17:15:26.574Z,32.60
2019-01-22T17:17:56.053Z,31.87
2019-01-22T17:20:28.131Z,32.67
2019-01-22T17:23:01.988Z,31.03
2019-01-22T17:25:28.941Z,31.05
2019-01-22T17:27:58.688Z,31.55
2019-01-22T17:30:30.897Z,32.10
2019-01-22T17:33:05.328Z,32.87
2019-01-22T17:35:36.210Z,32.65
2019-01-22T17:38:05.792Z,32.23
2019-01-22T17:40:36.323Z,33.43
2019-01-22T17:43:08.797Z,33.48
2019-01-22T17:45:38.325Z,35.23
2019-01-22T17:48:08.525Z,34.40
2019-01-22T17:50:45.191Z,32.95
2019-01-22T17:53:14.714Z,34.43
2019-01-22T17:55:44.208Z,35.23
2019-01-22T17:58:13.863Z,33.90
2019-01-22T18:00:43.426Z,34.55
2019-01-22T18:03:12.988Z,33.73
2019-01-22T18:05:42.529Z,33.10
2019-01-22T18:08:12.147Z,33.85
2019-01-22T18:10:41.742Z,33.53
2019-01-22T18:13:11.791Z,34.20
2019-01-22T18:15:41.366Z,32.60
2019-01-22T18:18:10.867Z,33.42
2019-01-22T18:20:40.373Z,33.83
2019-01-22T18:23:09.994Z,35.90
2019-01-22T18:25:39.484Z,34.20
2019-01-22T18:28:11.039Z,34.40
2019-01-22T18:30:41.581Z,34.30
2019-01-22T18:33:11.177Z,35.20
2019-01-22T18:35:42.854Z,33.33
2019-01-22T18:38:14.474Z,35.68
2019-01-22T18:40:43.990Z,36.00
2019-01-22T18:43:14.191Z,35.80
2019-01-22T18:45:43.744Z,35.25
2019-01-22T18:48:13.203Z,36.75
2019-01-22T18:50:42.750Z,35.20
2019-01-22T18:53:12.659Z,36.30
2019-01-22T18:55:42.162Z,35.58
2019-01-22T18:58:11.699Z,33.70
2019-01-22T19:00:41.287Z,35.53
2019-01-22T19:03:10.873Z,36.03
2019-01-22T19:05:40.418Z,35.83
2019-01-22T19:08:09.894Z,34.93
2019-01-22T19:10:39.773Z,35.25
2019-01-22T19:13:09.337Z,36.20
2019-01-22T19:15:39.013Z,35.78
2019-01-22T19:18:08.593Z,36.75
2019-01-22T19:20:38.149Z,36.73
2019-01-22T19:23:07.638Z,35.93
2019-01-22T19:25:37.158Z,36.90
2019-01-22T19:28:06.739Z,35.60
2019-01-22T19:30:36.272Z,37.33
2019-01-22T19:33:05.935Z,34.27
2019-01-22T19:35:35.445Z,35.73
2019-01-22T19:38:05.024Z,35.00
2019-01-22T19:40:34.520Z,37.00
2019-01-22T19:43:04.201Z,37.33
2019-01-22T19:45:36.982Z,36.30
2019-01-22T19:48:07.017Z,35.80
2019-01-22T19:50:36.482Z,36.15
2019-01-22T19:53:07.076Z,35.20
2019-01-22T19:55:36.653Z,36.90
2019-01-22T19:58:06.226Z,35.10
2019-01-22T20:00:37.984Z,36.10
2019-01-22T20:03:08.506Z,35.53
2019-01-22T20:05:38.129Z,35.85
2019-01-22T20:08:08.201Z,37.17
2019-01-22T20:10:37.778Z,34.50
2019-01-22T20:13:07.421Z,39.33
2019-01-22T20:15:37.044Z,35.03
2019-01-22T20:18:06.701Z,35.50
2019-01-22T20:20:36.463Z,36.90
2019-01-22T20:23:06.996Z,36.20
2019-01-22T20:25:36.628Z,34.80
2019-01-22T20:28:06.145Z,36.23
2019-01-22T20:30:37.456Z,34.63
2019-01-22T20:33:06.991Z,35.73
2019-01-22T20:35:36.483Z,34.43
2019-01-22T20:38:06.703Z,35.38
2019-01-22T20:40:36.258Z,34.40
2019-01-22T20:43:05.893Z,35.40
2019-01-22T20:45:35.479Z,36.75
2019-01-22T20:48:05.793Z,35.70
2019-01-22T20:50:35.452Z,35.10
2019-01-22T20:53:05.035Z,35.87
2019-01-22T20:55:34.697Z,37.17
2019-01-22T20:58:04.499Z,35.50
2019-01-22T21:00:34.062Z,35.68
2019-01-22T21:03:03.650Z,35.83
2019-01-22T21:05:33.100Z,34.45
2019-01-22T21:08:02.619Z,33.45
2019-01-22T21:10:33.750Z,36.67
2019-01-22T21:13:03.354Z,35.20
2019-01-22T21:15:33.975Z,36.05
2019-01-22T21:18:03.527Z,35.43
2019-01-22T21:20:33.574Z,36.77
2019-01-22T21:23:03.171Z,36.53
2019-01-22T21:25:32.837Z,35.23
2019-01-22T21:28:02.422Z,34.50
2019-01-22T21:30:34.069Z,34.75
2019-01-22T21:33:04.528Z,36.30
2019-01-22T21:35:34.212Z,33.73
2019-01-22T21:38:03.872Z,35.50
2019-01-22T21:40:33.430Z,33.23
2019-01-22T21:43:04.281Z,35.23
2019-01-22T21:45:33.842Z,35.95
2019-01-22T21:48:03.359Z,36.93
2019-01-22T21:50:32.828Z,33.42
2019-01-22T21:53:02.438Z,34.50
2019-01-22T21:55:31.934Z,35.30
2019-01-22T21:58:01.529Z,33.20
2019-01-22T22:00:31.010Z,35.13
2019-01-22T22:03:00.530Z,32.15
2019-01-22T22:05:31.286Z,33.92
2019-01-22T22:08:00.961Z,32.08
2019-01-22T22:10:30.450Z,33.20
2019-01-22T22:13:00.002Z,32.90
2019-01-22T22:15:29.546Z,33.13
2019-01-22T22:17:59.109Z,32.63
2019-01-22T22:20:28.595Z,32.45
2019-01-22T22:22:58.472Z,31.70
2019-01-22T22:25:27.972Z,32.20
2019-01-22T22:27:57.521Z,31.77
2019-01-22T22:30:32.142Z,31.95
2019-01-22T22:33:02.694Z,31.20
2019-01-22T22:35:32.646Z,32.10
2019-01-22T22:38:02.285Z,32.05
2019-01-22T22:40:31.784Z,32.30
2019-01-22T22:43:01.264Z,31.70
2019-01-22T22:45:31.714Z,31.13
2019-01-22T22:48:01.215Z,30.10
2019-01-22T22:50:32.073Z,30.20
2019-01-22T22:53:01.646Z,31.42
2019-01-22T22:55:31.190Z,31.10
2019-01-22T22:58:00.676Z,31.83
2019-01-22T23:00:47.778Z,31.20
2019-01-22T23:03:19.072Z,30.88
2019-01-22T23:05:48.828Z,31.37
2019-01-22T23:08:18.311Z,32.30
2019-01-22T23:10:47.794Z,31.60
2019-01-22T23:13:17.375Z,31.90
2019-01-22T23:15:46.863Z,31.90
2019-01-22T23:18:16.570Z,31.77
2019-01-22T23:20:46.047Z,32.27
2019-01-22T23:23:15.549Z,32.20
2019-01-22T23:25:46.141Z,31.75
2019-01-22T23:28:15.668Z,30.07
2019-01-22T23:30:45.152Z,31.90
2019-01-22T23:33:14.640Z,32.28
2019-01-22T23:35:44.142Z,33.43
2019-01-22T23:38:13.651Z,32.70
2019-01-22T23:40:43.135Z,33.30
2019-01-22T23:43:12.645Z,33.42
2019-01-22T23:45:42.134Z,34.07
2019-01-22T23:48:12.519Z,34.55
2019-01-22T23:50:42.125Z,34.00
2019-01-22T23:53:11.799Z,34.70
2019-01-22T23:55:41.297Z,32.93
2019-01-22T23:58:10.844Z,34.33
